sensor_id;sensor_type;location;lat;lon;timestamp;pressure;altitude;pressure_sealevel;temperature;humidity
46846;BME280;33947;46.804;134.252;2022-07-29T00:00:04;100836.53;;;26.70;68.33
46846;BME280;33947;46.804;134.252;2022-07-29T00:03:09;100814.31;;;26.75;67.50
46846;BME280;33947;46.804;134.252;2022-07-29T00:06:14;100818.88;;;26.75;67.24
46846;BME280;33947;46.804;134.252;2022-07-29T00:09:19;100829.91;;;26.63;68.53
46846;BME280;33947;46.804;134.252;2022-07-29T00:12:24;100824.72;;;26.50;68.95
46846;BME280;33947;46.804;134.252;2022-07-29T00:15:32;100838.78;;;26.55;68.62
46846;BME280;33947;46.804;134.252;2022-07-29T00:18:36;100838.81;;;26.65;67.83
46846;BME280;33947;46.804;134.252;2022-07-29T00:21:41;100843.06;;;26.48;68.71
46846;BME280;33947;46.804;134.252;2022-07-29T00:24:49;100847.53;;;26.59;67.79
46846;BME280;33947;46.804;134.252;2022-07-29T00:27:54;100835.44;;;26.42;68.05
46846;BME280;33947;46.804;134.252;2022-07-29T00:30:58;100846.03;;;26.14;68.42
46846;BME280;33947;46.804;134.252;2022-07-29T00:34:03;100826.63;;;26.28;69.03
46846;BME280;33947;46.804;134.252;2022-07-29T00:37:07;100831.84;;;26.41;68.29
46846;BME280;33947;46.804;134.252;2022-07-29T00:40:12;100824.19;;;26.66;67.83
46846;BME280;33947;46.804;134.252;2022-07-29T00:43:17;100818.25;;;26.92;67.65
46846;BME280;33947;46.804;134.252;2022-07-29T00:46:22;100815.66;;;27.10;67.45
46846;BME280;33947;46.804;134.252;2022-07-29T00:49:26;100816.69;;;27.09;67.34
46846;BME280;33947;46.804;134.252;2022-07-29T00:52:31;100818.06;;;26.84;67.38
46846;BME280;33947;46.804;134.252;2022-07-29T00:55:36;100806.75;;;26.89;67.37
46846;BME280;33947;46.804;134.252;2022-07-29T00:58:40;100824.53;;;26.93;67.69
46846;BME280;33947;46.804;134.252;2022-07-29T01:01:45;100840.63;;;27.15;67.57
46846;BME280;33947;46.804;134.252;2022-07-29T01:04:49;100827.97;;;26.95;68.38
46846;BME280;33947;46.804;134.252;2022-07-29T01:07:56;100830.84;;;27.03;67.61
46846;BME280;33947;46.804;134.252;2022-07-29T01:11:02;100817.06;;;26.95;67.92
46846;BME280;33947;46.804;134.252;2022-07-29T01:14:07;100826.28;;;27.04;67.42
46846;BME280;33947;46.804;134.252;2022-07-29T01:21:10;100820.53;;;27.46;66.30
46846;BME280;33947;46.804;134.252;2022-07-29T01:30:49;100819.84;;;27.54;64.91
46846;BME280;33947;46.804;134.252;2022-07-29T01:33:58;100823.13;;;27.38;66.24
46846;BME280;33947;46.804;134.252;2022-07-29T01:40:34;100834.03;;;27.67;65.00
46846;BME280;33947;46.804;134.252;2022-07-29T01:43:51;100825.53;;;27.70;64.94
46846;BME280;33947;46.804;134.252;2022-07-29T01:47:04;100811.88;;;28.56;62.50
46846;BME280;33947;46.804;134.252;2022-07-29T01:50:14;100807.13;;;28.76;62.00
46846;BME280;33947;46.804;134.252;2022-07-29T01:53:55;100816.50;;;28.73;61.42
46846;BME280;33947;46.804;134.252;2022-07-29T01:56:58;100822.84;;;28.46;62.92
46846;BME280;33947;46.804;134.252;2022-07-29T02:00:04;100812.59;;;28.76;61.87
46846;BME280;33947;46.804;134.252;2022-07-29T02:03:17;100818.25;;;28.93;62.46
46846;BME280;33947;46.804;134.252;2022-07-29T02:06:23;100807.81;;;28.88;61.30
46846;BME280;33947;46.804;134.252;2022-07-29T02:09:30;100802.41;;;29.51;60.33
46846;BME280;33947;46.804;134.252;2022-07-29T02:12:36;100784.38;;;30.27;57.67
46846;BME280;33947;46.804;134.252;2022-07-29T02:16:06;100788.09;;;30.61;56.87
46846;BME280;33947;46.804;134.252;2022-07-29T02:19:12;100789.09;;;30.52;56.92
46846;BME280;33947;46.804;134.252;2022-07-29T02:22:18;100796.53;;;30.68;56.26
46846;BME280;33947;46.804;134.252;2022-07-29T02:25:24;100787.28;;;30.85;55.34
46846;BME280;33947;46.804;134.252;2022-07-29T02:28:41;100797.41;;;30.77;55.95
46846;BME280;33947;46.804;134.252;2022-07-29T02:31:46;100775.22;;;30.53;56.16
46846;BME280;33947;46.804;134.252;2022-07-29T02:34:52;100787.44;;;30.67;55.56
46846;BME280;33947;46.804;134.252;2022-07-29T02:37:58;100785.41;;;30.86;55.28
46846;BME280;33947;46.804;134.252;2022-07-29T02:41:28;100773.28;;;30.97;54.71
46846;BME280;33947;46.804;134.252;2022-07-29T02:44:34;100773.09;;;31.15;54.74
46846;BME280;33947;46.804;134.252;2022-07-29T02:47:42;100782.53;;;31.12;55.13
46846;BME280;33947;46.804;134.252;2022-07-29T02:50:57;100764.03;;;31.31;55.66
46846;BME280;33947;46.804;134.252;2022-07-29T02:54:08;100760.25;;;31.32;53.89
46846;BME280;33947;46.804;134.252;2022-07-29T02:57:22;100756.44;;;30.83;52.90
46846;BME280;33947;46.804;134.252;2022-07-29T03:00:36;100743.09;;;30.88;54.61
46846;BME280;33947;46.804;134.252;2022-07-29T03:03:43;100746.69;;;30.81;54.93
46846;BME280;33947;46.804;134.252;2022-07-29T03:06:51;100739.31;;;30.98;54.31
46846;BME280;33947;46.804;134.252;2022-07-29T03:09:58;100737.44;;;30.90;55.19
46846;BME280;33947;46.804;134.252;2022-07-29T03:13:05;100731.78;;;30.92;54.75
46846;BME280;33947;46.804;134.252;2022-07-29T03:16:12;100720.81;;;30.92;55.14
46846;BME280;33947;46.804;134.252;2022-07-29T03:19:18;100724.41;;;31.09;54.12
46846;BME280;33947;46.804;134.252;2022-07-29T03:22:24;100716.50;;;30.89;55.55
46846;BME280;33947;46.804;134.252;2022-07-29T03:25:29;100698.34;;;30.88;55.23
46846;BME280;33947;46.804;134.252;2022-07-29T03:28:34;100709.16;;;30.98;53.64
46846;BME280;33947;46.804;134.252;2022-07-29T03:31:38;100677.59;;;30.60;54.47
46846;BME280;33947;46.804;134.252;2022-07-29T03:34:45;100702.97;;;30.71;54.96
46846;BME280;33947;46.804;134.252;2022-07-29T03:37:50;100682.59;;;30.73;54.90
46846;BME280;33947;46.804;134.252;2022-07-29T03:40:58;100689.25;;;30.63;54.82
46846;BME280;33947;46.804;134.252;2022-07-29T03:44:06;100684.63;;;30.71;54.62
46846;BME280;33947;46.804;134.252;2022-07-29T03:47:14;100691.66;;;30.74;55.71
46846;BME280;33947;46.804;134.252;2022-07-29T03:50:21;100682.56;;;30.82;55.11
46846;BME280;33947;46.804;134.252;2022-07-29T03:53:26;100664.03;;;30.67;55.73
46846;BME280;33947;46.804;134.252;2022-07-29T03:56:31;100680.66;;;30.57;55.73
46846;BME280;33947;46.804;134.252;2022-07-29T03:59:37;100674.50;;;30.80;54.78
46846;BME280;33947;46.804;134.252;2022-07-29T04:02:43;100682.31;;;30.33;56.92
46846;BME280;33947;46.804;134.252;2022-07-29T04:05:59;100671.75;;;30.55;56.41
46846;BME280;33947;46.804;134.252;2022-07-29T04:09:04;100667.97;;;30.56;56.94
46846;BME280;33947;46.804;134.252;2022-07-29T04:12:11;100668.00;;;30.89;55.67
46846;BME280;33947;46.804;134.252;2022-07-29T04:15:16;100662.84;;;30.78;56.94
46846;BME280;33947;46.804;134.252;2022-07-29T04:18:21;100653.75;;;31.11;55.74
46846;BME280;33947;46.804;134.252;2022-07-29T04:21:25;100642.97;;;31.01;56.03
46846;BME280;33947;46.804;134.252;2022-07-29T04:24:30;100644.53;;;30.79;56.47
46846;BME280;33947;46.804;134.252;2022-07-29T04:27:35;100634.91;;;30.91;56.50
46846;BME280;33947;46.804;134.252;2022-07-29T04:30:39;100650.84;;;30.79;55.33
46846;BME280;33947;46.804;134.252;2022-07-29T04:33:44;100642.47;;;30.81;55.91
46846;BME280;33947;46.804;134.252;2022-07-29T04:36:48;100645.69;;;30.51;55.35
46846;BME280;33947;46.804;134.252;2022-07-29T04:39:53;100620.50;;;30.31;56.25
46846;BME280;33947;46.804;134.252;2022-07-29T04:43:02;100623.06;;;30.24;57.15
46846;BME280;33947;46.804;134.252;2022-07-29T04:46:08;100620.50;;;30.47;57.73
46846;BME280;33947;46.804;134.252;2022-07-29T04:49:12;100624.13;;;30.65;57.46
46846;BME280;33947;46.804;134.252;2022-07-29T04:52:17;100617.25;;;30.52;57.81
46846;BME280;33947;46.804;134.252;2022-07-29T04:55:22;100616.59;;;30.67;56.72
46846;BME280;33947;46.804;134.252;2022-07-29T04:58:26;100627.38;;;30.60;56.86
46846;BME280;33947;46.804;134.252;2022-07-29T05:01:32;100614.50;;;30.19;57.93
46846;BME280;33947;46.804;134.252;2022-07-29T05:04:37;100626.81;;;30.40;57.44
46846;BME280;33947;46.804;134.252;2022-07-29T05:07:42;100627.91;;;30.64;57.02
46846;BME280;33947;46.804;134.252;2022-07-29T05:10:47;100602.84;;;30.33;56.18
46846;BME280;33947;46.804;134.252;2022-07-29T05:13:51;100603.53;;;30.19;57.23
46846;BME280;33947;46.804;134.252;2022-07-29T05:16:56;100591.22;;;30.31;57.30
46846;BME280;33947;46.804;134.252;2022-07-29T05:20:01;100599.78;;;30.53;55.95
46846;BME280;33947;46.804;134.252;2022-07-29T05:23:05;100606.47;;;30.34;57.92
46846;BME280;33947;46.804;134.252;2022-07-29T05:26:10;100601.31;;;30.39;58.20
46846;BME280;33947;46.804;134.252;2022-07-29T05:29:16;100597.91;;;30.37;58.22
46846;BME280;33947;46.804;134.252;2022-07-29T05:32:40;100610.56;;;30.55;57.08
46846;BME280;33947;46.804;134.252;2022-07-29T05:35:45;100591.75;;;30.60;56.34
46846;BME280;33947;46.804;134.252;2022-07-29T05:38:52;100602.34;;;30.55;55.74
46846;BME280;33947;46.804;134.252;2022-07-29T05:41:56;100583.47;;;30.02;57.91
46846;BME280;33947;46.804;134.252;2022-07-29T05:45:02;100589.50;;;30.30;57.54
46846;BME280;33947;46.804;134.252;2022-07-29T05:48:06;100592.25;;;30.55;57.50
46846;BME280;33947;46.804;134.252;2022-07-29T05:51:12;100591.72;;;30.68;56.64
46846;BME280;33947;46.804;134.252;2022-07-29T05:54:16;100585.75;;;30.65;57.56
46846;BME280;33947;46.804;134.252;2022-07-29T05:57:21;100581.25;;;30.39;57.51
46846;BME280;33947;46.804;134.252;2022-07-29T06:00:27;100564.66;;;30.40;56.92
46846;BME280;33947;46.804;134.252;2022-07-29T06:03:32;100572.88;;;30.49;55.10
46846;BME280;33947;46.804;134.252;2022-07-29T06:06:36;100565.34;;;30.26;55.98
46846;BME280;33947;46.804;134.252;2022-07-29T06:09:42;100522.31;;;29.93;56.02
46846;BME280;33947;46.804;134.252;2022-07-29T06:12:47;100558.25;;;29.98;56.91
46846;BME280;33947;46.804;134.252;2022-07-29T06:15:52;100558.09;;;30.00;57.25
46846;BME280;33947;46.804;134.252;2022-07-29T06:18:56;100549.84;;;29.92;58.09
46846;BME280;33947;46.804;134.252;2022-07-29T06:22:01;100540.59;;;29.93;57.50
46846;BME280;33947;46.804;134.252;2022-07-29T06:25:06;100536.03;;;30.10;56.88
46846;BME280;33947;46.804;134.252;2022-07-29T06:28:13;100547.88;;;30.18;56.66
46846;BME280;33947;46.804;134.252;2022-07-29T06:31:17;100541.97;;;29.88;56.77
46846;BME280;33947;46.804;134.252;2022-07-29T06:34:22;100541.47;;;29.85;57.60
46846;BME280;33947;46.804;134.252;2022-07-29T06:37:27;100528.13;;;29.82;57.12
46846;BME280;33947;46.804;134.252;2022-07-29T06:40:34;100537.31;;;29.64;57.96
46846;BME280;33947;46.804;134.252;2022-07-29T06:43:58;100547.47;;;29.37;59.81
46846;BME280;33947;46.804;134.252;2022-07-29T06:47:03;100535.97;;;29.25;60.02
46846;BME280;33947;46.804;134.252;2022-07-29T06:50:08;100543.28;;;29.25;60.61
46846;BME280;33947;46.804;134.252;2022-07-29T06:53:16;100543.94;;;29.18;60.88
46846;BME280;33947;46.804;134.252;2022-07-29T06:56:21;100533.56;;;29.30;60.68
46846;BME280;33947;46.804;134.252;2022-07-29T06:59:25;100530.06;;;29.12;60.98
46846;BME280;33947;46.804;134.252;2022-07-29T07:02:37;100523.22;;;29.42;59.52
46846;BME280;33947;46.804;134.252;2022-07-29T07:05:41;100526.53;;;29.28;61.86
46846;BME280;33947;46.804;134.252;2022-07-29T07:08:46;100498.84;;;29.31;60.99
46846;BME280;33947;46.804;134.252;2022-07-29T07:11:51;100520.50;;;29.42;61.14
46846;BME280;33947;46.804;134.252;2022-07-29T07:14:55;100523.94;;;29.53;60.84
46846;BME280;33947;46.804;134.252;2022-07-29T07:18:00;100525.28;;;29.49;61.81
46846;BME280;33947;46.804;134.252;2022-07-29T07:21:04;100519.69;;;29.24;63.15
46846;BME280;33947;46.804;134.252;2022-07-29T07:24:09;100508.13;;;29.38;62.04
46846;BME280;33947;46.804;134.252;2022-07-29T07:27:14;100507.84;;;29.41;62.35
46846;BME280;33947;46.804;134.252;2022-07-29T07:30:20;100501.59;;;29.31;62.41
46846;BME280;33947;46.804;134.252;2022-07-29T07:33:24;100496.31;;;29.29;63.17
46846;BME280;33947;46.804;134.252;2022-07-29T07:36:29;100509.44;;;29.26;63.13
46846;BME280;33947;46.804;134.252;2022-07-29T07:39:33;100502.19;;;29.43;63.20
46846;BME280;33947;46.804;134.252;2022-07-29T07:42:38;100506.38;;;29.29;63.36
46846;BME280;33947;46.804;134.252;2022-07-29T07:45:45;100498.38;;;29.36;62.47
46846;BME280;33947;46.804;134.252;2022-07-29T07:48:50;100499.38;;;29.26;63.15
46846;BME280;33947;46.804;134.252;2022-07-29T07:51:56;100496.97;;;29.23;63.00
46846;BME280;33947;46.804;134.252;2022-07-29T07:55:01;100512.13;;;29.09;63.56
46846;BME280;33947;46.804;134.252;2022-07-29T07:58:05;100504.56;;;29.03;63.28
46846;BME280;33947;46.804;134.252;2022-07-29T08:01:10;100513.00;;;28.83;63.97
46846;BME280;33947;46.804;134.252;2022-07-29T08:04:15;100501.56;;;28.80;63.46
46846;BME280;33947;46.804;134.252;2022-07-29T08:07:25;100498.56;;;28.73;63.77
46846;BME280;33947;46.804;134.252;2022-07-29T08:10:30;100512.06;;;28.48;64.52
46846;BME280;33947;46.804;134.252;2022-07-29T08:13:53;100499.00;;;28.34;65.15
46846;BME280;33947;46.804;134.252;2022-07-29T08:16:57;100491.84;;;28.14;65.02
46846;BME280;33947;46.804;134.252;2022-07-29T08:20:03;100501.88;;;28.32;64.66
46846;BME280;33947;46.804;134.252;2022-07-29T08:23:08;100513.88;;;28.39;64.81
46846;BME280;33947;46.804;134.252;2022-07-29T08:26:13;100501.34;;;28.28;64.99
46846;BME280;33947;46.804;134.252;2022-07-29T08:29:18;100503.75;;;28.31;64.55
46846;BME280;33947;46.804;134.252;2022-07-29T08:32:23;100501.09;;;28.40;63.86
46846;BME280;33947;46.804;134.252;2022-07-29T08:35:47;100485.03;;;28.19;63.81
46846;BME280;33947;46.804;134.252;2022-07-29T08:38:54;100500.84;;;28.33;63.04
46846;BME280;33947;46.804;134.252;2022-07-29T08:41:58;100505.41;;;28.24;63.08
46846;BME280;33947;46.804;134.252;2022-07-29T08:45:05;100505.31;;;28.16;63.39
46846;BME280;33947;46.804;134.252;2022-07-29T08:51:55;100480.13;;;27.86;64.49
46846;BME280;33947;46.804;134.252;2022-07-29T08:55:02;100482.38;;;27.91;64.56
46846;BME280;33947;46.804;134.252;2022-07-29T08:58:07;100489.47;;;28.01;64.91
46846;BME280;33947;46.804;134.252;2022-07-29T09:01:21;100477.84;;;27.99;64.92
46846;BME280;33947;46.804;134.252;2022-07-29T09:04:38;100484.56;;;27.87;65.36
46846;BME280;33947;46.804;134.252;2022-07-29T09:07:43;100472.91;;;28.03;65.07
46846;BME280;33947;46.804;134.252;2022-07-29T09:10:51;100481.53;;;28.08;64.81
46846;BME280;33947;46.804;134.252;2022-07-29T09:13:57;100464.19;;;27.99;64.67
46846;BME280;33947;46.804;134.252;2022-07-29T09:17:01;100470.81;;;27.97;64.79
46846;BME280;33947;46.804;134.252;2022-07-29T09:20:16;100472.91;;;28.03;64.69
46846;BME280;33947;46.804;134.252;2022-07-29T09:23:22;100469.34;;;27.84;65.06
46846;BME280;33947;46.804;134.252;2022-07-29T09:26:30;100472.31;;;27.91;64.73
46846;BME280;33947;46.804;134.252;2022-07-29T09:29:38;100471.75;;;28.06;63.91
46846;BME280;33947;46.804;134.252;2022-07-29T09:32:59;100473.66;;;27.87;64.23
46846;BME280;33947;46.804;134.252;2022-07-29T09:36:08;100472.53;;;27.80;64.86
46846;BME280;33947;46.804;134.252;2022-07-29T09:39:14;100479.13;;;27.87;64.65
46846;BME280;33947;46.804;134.252;2022-07-29T09:42:30;100484.97;;;27.74;65.05
46846;BME280;33947;46.804;134.252;2022-07-29T09:45:37;100482.63;;;27.61;65.49
46846;BME280;33947;46.804;134.252;2022-07-29T09:48:42;100465.88;;;27.46;65.83
46846;BME280;33947;46.804;134.252;2022-07-29T09:51:47;100434.22;;;27.07;66.42
46846;BME280;33947;46.804;134.252;2022-07-29T09:54:51;100479.34;;;27.29;67.02
46846;BME280;33947;46.804;134.252;2022-07-29T09:58:20;100489.81;;;27.24;67.93
46846;BME280;33947;46.804;134.252;2022-07-29T10:01:29;100480.75;;;27.06;69.45
46846;BME280;33947;46.804;134.252;2022-07-29T10:04:40;100477.09;;;26.87;70.14
46846;BME280;33947;46.804;134.252;2022-07-29T10:07:53;100492.72;;;26.85;70.87
46846;BME280;33947;46.804;134.252;2022-07-29T10:14:18;100474.13;;;26.61;71.57
46846;BME280;33947;46.804;134.252;2022-07-29T10:17:22;100486.03;;;26.59;71.50
46846;BME280;33947;46.804;134.252;2022-07-29T10:20:27;100498.66;;;26.51;71.65
46846;BME280;33947;46.804;134.252;2022-07-29T10:23:31;100492.97;;;26.44;71.84
46846;BME280;33947;46.804;134.252;2022-07-29T10:26:49;100492.41;;;26.30;72.05
46846;BME280;33947;46.804;134.252;2022-07-29T10:29:54;100501.44;;;26.41;71.94
46846;BME280;33947;46.804;134.252;2022-07-29T10:33:32;100505.19;;;26.30;72.12
46846;BME280;33947;46.804;134.252;2022-07-29T10:37:06;100511.91;;;26.16;73.90
46846;BME280;33947;46.804;134.252;2022-07-29T10:43:47;100520.50;;;25.92;74.53
46846;BME280;33947;46.804;134.252;2022-07-29T10:46:54;100504.16;;;25.82;74.37
46846;BME280;33947;46.804;134.252;2022-07-29T10:50:04;100506.31;;;25.78;74.56
46846;BME280;33947;46.804;134.252;2022-07-29T10:53:08;100507.00;;;25.70;74.90
46846;BME280;33947;46.804;134.252;2022-07-29T10:56:27;100510.72;;;25.69;74.15
46846;BME280;33947;46.804;134.252;2022-07-29T10:59:31;100531.34;;;25.82;73.56
46846;BME280;33947;46.804;134.252;2022-07-29T11:05:55;100514.13;;;25.52;75.17
46846;BME280;33947;46.804;134.252;2022-07-29T11:09:30;100540.41;;;25.41;76.68
46846;BME280;33947;46.804;134.252;2022-07-29T11:15:57;100547.72;;;25.41;75.89
46846;BME280;33947;46.804;134.252;2022-07-29T11:22:32;100555.66;;;25.23;76.57
46846;BME280;33947;46.804;134.252;2022-07-29T11:25:38;100553.63;;;25.15;76.79
46846;BME280;33947;46.804;134.252;2022-07-29T11:29:21;100569.81;;;25.26;76.47
46846;BME280;33947;46.804;134.252;2022-07-29T11:32:40;100565.50;;;25.14;77.89
46846;BME280;33947;46.804;134.252;2022-07-29T11:36:11;100555.44;;;25.05;77.82
46846;BME280;33947;46.804;134.252;2022-07-29T11:39:26;100557.09;;;24.96;78.16
46846;BME280;33947;46.804;134.252;2022-07-29T11:42:40;100558.81;;;24.97;77.97
46846;BME280;33947;46.804;134.252;2022-07-29T11:45:46;100550.06;;;24.93;77.76
46846;BME280;33947;46.804;134.252;2022-07-29T11:48:51;100557.56;;;25.01;78.21
46846;BME280;33947;46.804;134.252;2022-07-29T11:51:57;100565.59;;;25.03;77.83
46846;BME280;33947;46.804;134.252;2022-07-29T11:55:06;100544.34;;;24.87;78.04
46846;BME280;33947;46.804;134.252;2022-07-29T11:58:12;100557.94;;;24.96;77.79
46846;BME280;33947;46.804;134.252;2022-07-29T12:01:17;100542.69;;;25.05;77.21
46846;BME280;33947;46.804;134.252;2022-07-29T12:04:22;100563.22;;;25.19;77.15
46846;BME280;33947;46.804;134.252;2022-07-29T12:07:33;100558.00;;;25.06;77.16
46846;BME280;33947;46.804;134.252;2022-07-29T12:10:38;100552.00;;;25.03;77.27
46846;BME280;33947;46.804;134.252;2022-07-29T12:13:43;100556.00;;;25.08;77.14
46846;BME280;33947;46.804;134.252;2022-07-29T12:16:51;100545.59;;;25.13;77.00
46846;BME280;33947;46.804;134.252;2022-07-29T12:19:59;100554.16;;;25.09;76.95
46846;BME280;33947;46.804;134.252;2022-07-29T12:23:06;100564.09;;;25.20;76.86
46846;BME280;33947;46.804;134.252;2022-07-29T12:26:11;100567.78;;;25.19;77.01
46846;BME280;33947;46.804;134.252;2022-07-29T12:29:27;100569.94;;;25.15;77.31
46846;BME280;33947;46.804;134.252;2022-07-29T12:32:40;100571.69;;;25.26;76.85
46846;BME280;33947;46.804;134.252;2022-07-29T12:35:50;100567.94;;;25.17;76.74
46846;BME280;33947;46.804;134.252;2022-07-29T12:39:10;100577.13;;;25.26;76.72
46846;BME280;33947;46.804;134.252;2022-07-29T12:42:15;100568.81;;;25.27;76.49
46846;BME280;33947;46.804;134.252;2022-07-29T12:45:29;100563.84;;;25.33;76.55
46846;BME280;33947;46.804;134.252;2022-07-29T12:48:38;100563.56;;;25.36;76.15
46846;BME280;33947;46.804;134.252;2022-07-29T12:51:42;100554.16;;;25.40;76.27
46846;BME280;33947;46.804;134.252;2022-07-29T12:54:47;100558.44;;;25.42;75.93
46846;BME280;33947;46.804;134.252;2022-07-29T12:57:53;100558.91;;;25.48;75.84
46846;BME280;33947;46.804;134.252;2022-07-29T13:01:15;100543.25;;;25.30;76.36
46846;BME280;33947;46.804;134.252;2022-07-29T13:04:26;100547.84;;;25.39;76.14
46846;BME280;33947;46.804;134.252;2022-07-29T13:07:32;100534.34;;;25.28;76.24
46846;BME280;33947;46.804;134.252;2022-07-29T13:10:59;100539.91;;;25.26;76.64
46846;BME280;33947;46.804;134.252;2022-07-29T13:14:04;100554.84;;;25.32;76.73
46846;BME280;33947;46.804;134.252;2022-07-29T13:20:17;100548.22;;;25.25;76.92
46846;BME280;33947;46.804;134.252;2022-07-29T13:23:22;100551.44;;;25.09;78.02
46846;BME280;33947;46.804;134.252;2022-07-29T13:26:26;100537.84;;;25.09;77.62
46846;BME280;33947;46.804;134.252;2022-07-29T13:29:31;100556.72;;;25.10;77.50
46846;BME280;33947;46.804;134.252;2022-07-29T13:32:36;100530.75;;;24.87;78.32
46846;BME280;33947;46.804;134.252;2022-07-29T13:35:41;100537.16;;;25.17;77.49
46846;BME280;33947;46.804;134.252;2022-07-29T13:38:45;100527.13;;;25.07;77.95
46846;BME280;33947;46.804;134.252;2022-07-29T13:41:49;100528.56;;;25.11;77.87
46846;BME280;33947;46.804;134.252;2022-07-29T13:44:54;100512.94;;;25.04;78.38
46846;BME280;33947;46.804;134.252;2022-07-29T13:47:58;100503.19;;;25.01;78.09
46846;BME280;33947;46.804;134.252;2022-07-29T13:51:03;100514.41;;;25.08;78.31
46846;BME280;33947;46.804;134.252;2022-07-29T13:54:07;100497.44;;;24.94;78.54
46846;BME280;33947;46.804;134.252;2022-07-29T13:57:12;100495.00;;;24.91;79.06
46846;BME280;33947;46.804;134.252;2022-07-29T14:00:17;100496.16;;;24.89;79.09
46846;BME280;33947;46.804;134.252;2022-07-29T14:03:23;100497.38;;;24.75;79.59
46846;BME280;33947;46.804;134.252;2022-07-29T14:06:28;100503.25;;;24.80;79.82
46846;BME280;33947;46.804;134.252;2022-07-29T14:09:33;100505.09;;;24.58;81.01
46846;BME280;33947;46.804;134.252;2022-07-29T14:12:43;100487.94;;;24.57;80.81
46846;BME280;33947;46.804;134.252;2022-07-29T14:15:47;100486.81;;;24.60;80.10
46846;BME280;33947;46.804;134.252;2022-07-29T14:18:52;100489.41;;;24.62;80.29
46846;BME280;33947;46.804;134.252;2022-07-29T14:21:56;100501.09;;;24.62;81.03
46846;BME280;33947;46.804;134.252;2022-07-29T14:25:01;100487.22;;;24.55;80.96
46846;BME280;33947;46.804;134.252;2022-07-29T14:28:16;100480.78;;;24.56;81.14
46846;BME280;33947;46.804;134.252;2022-07-29T14:31:21;100487.22;;;24.55;81.50
46846;BME280;33947;46.804;134.252;2022-07-29T14:34:25;100493.50;;;24.56;81.35
46846;BME280;33947;46.804;134.252;2022-07-29T14:37:29;100489.94;;;24.55;81.37
46846;BME280;33947;46.804;134.252;2022-07-29T14:40:42;100491.38;;;24.60;81.09
46846;BME280;33947;46.804;134.252;2022-07-29T14:43:46;100494.72;;;24.63;81.18
46846;BME280;33947;46.804;134.252;2022-07-29T14:46:50;100493.03;;;24.72;81.25
46846;BME280;33947;46.804;134.252;2022-07-29T14:49:55;100489.13;;;24.65;81.29
46846;BME280;33947;46.804;134.252;2022-07-29T14:53:00;100492.78;;;24.75;81.62
46846;BME280;33947;46.804;134.252;2022-07-29T14:56:04;100497.09;;;24.56;82.83
46846;BME280;33947;46.804;134.252;2022-07-29T14:59:28;100480.97;;;24.65;81.11
46846;BME280;33947;46.804;134.252;2022-07-29T15:02:33;100487.59;;;24.72;81.60
46846;BME280;33947;46.804;134.252;2022-07-29T15:05:58;100488.41;;;24.63;81.64
46846;BME280;33947;46.804;134.252;2022-07-29T15:09:02;100483.97;;;24.62;82.14
46846;BME280;33947;46.804;134.252;2022-07-29T15:12:07;100494.44;;;24.66;82.10
46846;BME280;33947;46.804;134.252;2022-07-29T15:15:14;100469.94;;;24.56;82.16
46846;BME280;33947;46.804;134.252;2022-07-29T15:18:18;100473.91;;;24.52;82.41
46846;BME280;33947;46.804;134.252;2022-07-29T15:21:28;100484.09;;;24.60;82.46
46846;BME280;33947;46.804;134.252;2022-07-29T15:24:32;100487.94;;;24.57;82.24
46846;BME280;33947;46.804;134.252;2022-07-29T15:27:36;100476.19;;;24.47;82.50
46846;BME280;33947;46.804;134.252;2022-07-29T15:30:40;100478.75;;;24.49;82.69
46846;BME280;33947;46.804;134.252;2022-07-29T15:33:45;100472.41;;;24.38;83.00
46846;BME280;33947;46.804;134.252;2022-07-29T15:36:50;100460.81;;;24.36;83.10
46846;BME280;33947;46.804;134.252;2022-07-29T15:39:55;100465.81;;;24.41;82.50
46846;BME280;33947;46.804;134.252;2022-07-29T15:43:04;100458.69;;;24.40;82.82
46846;BME280;33947;46.804;134.252;2022-07-29T15:46:16;100472.75;;;24.45;82.84
46846;BME280;33947;46.804;134.252;2022-07-29T15:49:40;100464.44;;;24.47;82.57
46846;BME280;33947;46.804;134.252;2022-07-29T15:52:51;100476.38;;;24.55;81.65
46846;BME280;33947;46.804;134.252;2022-07-29T15:55:55;100463.09;;;24.62;81.20
46846;BME280;33947;46.804;134.252;2022-07-29T15:58:59;100464.22;;;24.60;81.17
46846;BME280;33947;46.804;134.252;2022-07-29T16:02:04;100459.78;;;24.59;81.46
46846;BME280;33947;46.804;134.252;2022-07-29T16:05:09;100462.25;;;24.62;81.45
46846;BME280;33947;46.804;134.252;2022-07-29T16:08:13;100462.13;;;24.42;81.95
46846;BME280;33947;46.804;134.252;2022-07-29T16:11:17;100442.59;;;24.48;81.45
46846;BME280;33947;46.804;134.252;2022-07-29T16:14:21;100440.34;;;24.53;81.53
46846;BME280;33947;46.804;134.252;2022-07-29T16:17:30;100442.69;;;24.68;80.98
46846;BME280;33947;46.804;134.252;2022-07-29T16:20:34;100449.75;;;24.80;80.25
46846;BME280;33947;46.804;134.252;2022-07-29T16:23:39;100447.47;;;24.76;80.79
46846;BME280;33947;46.804;134.252;2022-07-29T16:26:44;100443.06;;;24.53;81.58
46846;BME280;33947;46.804;134.252;2022-07-29T16:29:48;100429.91;;;24.59;81.09
46846;BME280;33947;46.804;134.252;2022-07-29T16:32:53;100434.22;;;24.61;81.58